This is the latest recevied weather packets stored in our database for station/object AD0YN. If no packets are shown the sender has not sent any weather packets the latest 10 day(s).
| Time | Temp. | Humidity | Pressure | Rain* | Wind** | Luminosity | Snow |
|---|---|---|---|---|---|---|---|
| 1777409728 | 15.56° C | 64% | 1014.4 hPa | 0 mm | - | 384 W/m² | - |
| 1777409425 | 15.56° C | 62% | 1014.5 hPa | 0 mm | - | 423 W/m² | - |
| 1777409120 | 15.56° C | 61% | 1014.9 hPa | 0 mm | - | 368 W/m² | - |
| 1777408816 | 15.56° C | 62% | 1014.7 hPa | 0 mm | - | 358 W/m² | - |
| 1777408513 | 15.56° C | 61% | 1014.9 hPa | 0 mm | - | 281 W/m² | - |
| 1777408212 | 15.56° C | 64% | 1014.7 hPa | 0 mm | - | 335 W/m² | - |
| 1777407908 | 15.56° C | 63% | 1014.6 hPa | 0 mm | - | 306 W/m² | - |
| 1777407606 | 16.11° C | 60% | 1014.4 hPa | 0 mm | - | 273 W/m² | - |
| 1777407306 | 15.56° C | 63% | 1014.6 hPa | 0 mm | - | 324 W/m² | - |
| 1777407001 | 16.67° C | 57% | 1014.6 hPa | 0 mm | - | 485 W/m² | - |
| 1777406695 | 16.67° C | 57% | 1014.4 hPa | 0 mm | - | 339 W/m² | - |
| 1777406391 | 16.11° C | 62% | 1014.5 hPa | 0 mm | - | 928 W/m² | - |
| 1777406091 | 16.11° C | 60% | 1014.6 hPa | 0 mm | - | 913 W/m² | - |
| 1777405787 | 16.11° C | 60% | 1014.6 hPa | 0 mm | - | 810 W/m² | - |
| 1777405483 | 15.56° C | 60% | 1015.3 hPa | 0 mm | - | 294 W/m² | - |
| 1777405181 | 15.56° C | 60% | 1015.2 hPa | 0 mm | - | 314 W/m² | - |
| 1777404878 | 15.56° C | 59% | 1014.9 hPa | 0 mm | - | 397 W/m² | - |
| 1777404576 | 16.11° C | 59% | 1014.5 hPa | 0 mm | - | 384 W/m² | - |
| 1777404272 | 16.11° C | 60% | 1014.6 hPa | 0 mm | - | 874 W/m² | - |
| 1777403967 | 15.56° C | 64% | 1014.6 hPa | 0 mm | - | 904 W/m² | - |
| 1777403662 | 15.56° C | 64% | 1014.6 hPa | 0 mm | - | 796 W/m² | - |
| 1777403361 | 15° C | 63% | 1014.7 hPa | 0 mm | - | 388 W/m² | - |
| 1777403061 | 13.89° C | 64% | 1014.9 hPa | 0 mm | - | 889 W/m² | - |
| 1777402758 | 13.89° C | 69% | 1014.4 hPa | 0 mm | - | 234 W/m² | - |
| 1777402454 | 13.89° C | 65% | 1014.6 hPa | 0 mm | - | 134 W/m² | - |
* Rain latest hour (hover to see other rain measurements)
** Current wind speed in m/s (hover to see current wind gust speed)